createdAt,value
2019-02-27T00:01:02.015Z,97067.55
2019-02-27T00:03:35.279Z,97064.61
2019-02-27T00:06:07.147Z,97064.75
2019-02-27T00:08:38.889Z,97055.83
2019-02-27T00:11:12.487Z,97054.67
2019-02-27T00:13:44.023Z,97059.66
2019-02-27T00:16:15.787Z,97061.80
2019-02-27T00:18:47.440Z,97054.12
2019-02-27T00:21:19.019Z,97060.97
2019-02-27T00:23:50.771Z,97053.28
2019-02-27T00:26:22.591Z,97059.25
2019-02-27T00:28:56.107Z,97058.73
2019-02-27T00:31:27.903Z,97057.39
2019-02-27T00:34:00.511Z,97060.88
2019-02-27T00:36:32.364Z,97048.98
2019-02-27T00:39:04.118Z,97052.47
2019-02-27T00:41:37.460Z,97050.06
2019-02-27T00:44:09.152Z,97047.12
2019-02-27T00:46:40.872Z,97047.12
2019-02-27T00:49:12.613Z,97037.40
2019-02-27T00:51:44.978Z,97045.15
2019-02-27T00:54:17.626Z,97038.71
2019-02-27T00:56:49.640Z,97038.86
2019-02-27T00:59:21.240Z,97044.47
2019-02-27T01:01:53.163Z,97036.69
2019-02-27T01:04:24.927Z,97039.62
2019-02-27T01:06:56.667Z,97037.15
2019-02-27T01:09:28.382Z,97038.75
2019-02-27T01:12:00.089Z,97033.19
2019-02-27T01:14:31.814Z,97027.33
2019-02-27T01:17:03.470Z,97030.53
2019-02-27T01:19:38.318Z,97026.13
2019-02-27T01:22:08.512Z,97027.98
2019-02-27T01:24:41.561Z,97027.84
2019-02-27T01:27:13.401Z,97021.72
2019-02-27T01:29:45.109Z,97032.09
2019-02-27T01:32:16.829Z,97027.33
2019-02-27T01:34:48.582Z,97030.46
2019-02-27T01:37:20.256Z,97035.05
2019-02-27T01:39:52.000Z,97031.84
2019-02-27T01:42:23.604Z,97045.81
2019-02-27T01:44:55.261Z,97036.49
2019-02-27T01:47:27.001Z,97040.31
2019-02-27T01:49:58.702Z,97042.97
2019-02-27T01:52:33.960Z,97043.56
2019-02-27T01:55:05.101Z,97037.15
2019-02-27T01:57:37.411Z,97038.16
2019-02-27T02:00:09.301Z,97034.96
2019-02-27T02:02:42.524Z,97035.54
2019-02-27T02:05:14.359Z,97036.05
2019-02-27T02:07:48.779Z,97036.05
2019-02-27T02:10:20.597Z,97034.81
2019-02-27T02:13:08.675Z,97042.92
2019-02-27T02:15:51.174Z,97035.31
2019-02-27T02:19:18.957Z,97039.91
2019-02-27T02:22:10.261Z,97036.15
2019-02-27T02:25:04.100Z,97038.50
2019-02-27T02:28:06.801Z,97030.97
2019-02-27T02:31:09.925Z,97038.50
2019-02-27T02:34:05.179Z,97046.05
2019-02-27T02:37:06.795Z,97044.81
2019-02-27T02:40:06.073Z,97053.47
2019-02-27T02:43:03.494Z,97048.68
2019-02-27T02:46:08.911Z,97053.11
2019-02-27T02:48:51.938Z,97057.70
2019-02-27T02:51:57.573Z,97057.16
2019-02-27T02:54:51.471Z,97056.63
2019-02-27T02:58:11.302Z,97062.05
2019-02-27T03:01:01.181Z,97072.66
2019-02-27T03:04:31.396Z,97073.39
2019-02-27T03:07:34.220Z,97075.17
2019-02-27T03:10:47.007Z,97075.41
2019-02-27T03:13:53.131Z,97086.71
2019-02-27T03:16:52.191Z,97085.22
2019-02-27T03:19:41.734Z,97088.20
2019-02-27T03:22:48.469Z,97088.20
2019-02-27T03:25:51.982Z,97092.05
2019-02-27T03:29:05.372Z,97096.83
2019-02-27T03:32:16.705Z,97097.60
2019-02-27T03:35:27.975Z,97096.70
2019-02-27T03:38:43.058Z,97088.11
2019-02-27T03:42:06.964Z,97094.47
2019-02-27T03:44:57.220Z,97104.27
2019-02-27T03:47:53.659Z,97110.01
2019-02-27T03:50:53.588Z,97109.05
2019-02-27T03:53:55.147Z,97105.39
2019-02-27T03:57:18.903Z,97104.14
2019-02-27T04:00:30.398Z,97100.83
2019-02-27T04:03:27.987Z,97102.69
2019-02-27T04:06:46.178Z,97101.66
2019-02-27T04:09:19.829Z,97097.91
2019-02-27T04:11:51.607Z,97096.42
2019-02-27T04:14:40.402Z,97091.34
2019-02-27T04:17:07.797Z,97101.30
2019-02-27T04:19:40.452Z,97107.80
2019-02-27T04:22:12.677Z,97106.69
2019-02-27T04:24:44.326Z,97105.05
2019-02-27T04:27:20.049Z,97116.14
2019-02-27T04:29:49.907Z,97110.91
2019-02-27T04:32:21.629Z,97114.03
2019-02-27T04:34:53.336Z,97120.67
2019-02-27T04:37:25.027Z,97119.03
2019-02-27T04:39:56.685Z,97118.75
2019-02-27T04:42:28.558Z,97119.87
2019-02-27T04:45:00.298Z,97122.81
2019-02-27T04:47:32.121Z,97123.69
2019-02-27T04:50:03.886Z,97126.66
2019-02-27T04:52:35.733Z,97137.09
2019-02-27T04:55:07.514Z,97138.70
2019-02-27T04:57:39.181Z,97142.55
2019-02-27T05:00:11.004Z,97140.91
2019-02-27T05:02:42.747Z,97146.36
2019-02-27T05:05:14.566Z,97144.72
2019-02-27T05:07:46.407Z,97139.20
2019-02-27T05:10:18.075Z,97147.14
2019-02-27T05:12:49.796Z,97147.91
2019-02-27T05:15:21.603Z,97152.20
2019-02-27T05:17:55.669Z,97155.55
2019-02-27T05:20:27.019Z,97155.55
2019-02-27T05:23:00.487Z,97159.67
2019-02-27T05:25:32.440Z,97162.71
2019-02-27T05:28:04.271Z,97165.84
2019-02-27T05:30:36.042Z,97168.86
2019-02-27T05:33:07.769Z,97170.91
2019-02-27T05:35:39.510Z,97170.22
2019-02-27T05:38:11.337Z,97188.87
2019-02-27T05:40:43.167Z,97188.03
2019-02-27T05:43:14.791Z,97189.36
2019-02-27T05:45:47.728Z,97202.27
2019-02-27T05:48:20.061Z,97207.02
2019-02-27T05:50:52.490Z,97201.68
2019-02-27T05:53:27.013Z,97203.87
2019-02-27T05:55:58.638Z,97206.92
2019-02-27T05:58:30.549Z,97201.19
2019-02-27T06:01:04.984Z,97211.42
2019-02-27T06:03:35.778Z,97208.88
2019-02-27T06:06:11.570Z,97213.09
2019-02-27T06:08:40.895Z,97226.75
2019-02-27T06:11:12.641Z,97219.05
2019-02-27T06:13:45.010Z,97234.23
2019-02-27T06:16:20.901Z,97223.36
2019-02-27T06:18:56.073Z,97229.23
2019-02-27T06:21:25.969Z,97235.59
2019-02-27T06:23:57.633Z,97237.09
2019-02-27T06:26:32.341Z,97240.09
2019-02-27T06:29:03.294Z,97252.20
2019-02-27T06:31:38.830Z,97247.58
2019-02-27T06:34:08.323Z,97254.57
2019-02-27T06:36:42.804Z,97256.63
2019-02-27T06:39:13.351Z,97253.58
2019-02-27T06:41:47.449Z,97252.19
2019-02-27T06:44:19.077Z,97248.56
2019-02-27T06:46:54.761Z,97246.88
2019-02-27T06:49:29.139Z,97252.47
2019-02-27T06:52:01.008Z,97249.05
2019-02-27T06:54:32.656Z,97264.45
2019-02-27T06:57:07.491Z,97271.97
2019-02-27T06:59:37.667Z,97271.53
2019-02-27T07:02:09.315Z,97279.17
2019-02-27T07:04:41.013Z,97277.81
2019-02-27T07:07:12.695Z,97284.55
2019-02-27T07:09:45.829Z,97291.53
2019-02-27T07:12:21.634Z,97273.65
2019-02-27T07:14:51.137Z,97277.66
2019-02-27T07:17:22.909Z,97279.82
2019-02-27T07:19:54.776Z,97290.20
2019-02-27T07:22:26.603Z,97282.67
2019-02-27T07:24:58.268Z,97292.36
2019-02-27T07:27:31.317Z,97286.80
2019-02-27T07:30:04.899Z,97291.92
2019-02-27T07:32:37.263Z,97286.17
2019-02-27T07:35:09.340Z,97300.16
2019-02-27T07:37:41.339Z,97312.28
2019-02-27T07:40:14.720Z,97312.52
2019-02-27T07:42:46.608Z,97312.16
2019-02-27T07:45:19.234Z,97318.13
2019-02-27T07:47:51.038Z,97326.58
2019-02-27T07:50:23.455Z,97320.44
2019-02-27T07:52:55.400Z,97330.23
2019-02-27T07:55:28.509Z,97320.53
2019-02-27T07:58:01.166Z,97335.97
2019-02-27T08:00:33.089Z,97324.77
2019-02-27T08:03:09.114Z,97328.66
2019-02-27T08:05:38.198Z,97335.78
2019-02-27T08:08:09.987Z,97332.45
2019-02-27T08:10:41.676Z,97333.33
2019-02-27T08:13:13.486Z,97342.66
2019-02-27T08:15:45.338Z,97335.78
2019-02-27T08:18:20.400Z,97345.52
2019-02-27T08:20:52.062Z,97355.61
2019-02-27T08:23:24.196Z,97352.27
2019-02-27T08:25:55.900Z,97362.71
2019-02-27T08:28:27.602Z,97361.52
2019-02-27T08:30:59.436Z,97355.58
2019-02-27T08:33:31.248Z,97360.42
2019-02-27T08:36:03.000Z,97360.44
2019-02-27T08:38:34.772Z,97359.42
2019-02-27T08:41:06.555Z,97362.30
2019-02-27T08:43:41.252Z,97363.16
2019-02-27T08:46:11.765Z,97358.34
2019-02-27T08:48:43.551Z,97363.92
2019-02-27T08:51:16.316Z,97365.34
2019-02-27T08:53:48.127Z,97366.22
2019-02-27T08:56:20.036Z,97358.05
2019-02-27T08:58:51.677Z,97370.75
2019-02-27T09:01:23.480Z,97376.98
2019-02-27T09:03:55.458Z,97367.17
2019-02-27T09:06:28.156Z,97364.28
2019-02-27T09:09:00.149Z,97364.61
2019-02-27T09:11:32.001Z,97369.91
2019-02-27T09:14:03.855Z,97377.77
2019-02-27T09:16:35.636Z,97374.78
2019-02-27T09:19:09.428Z,97370.34
2019-02-27T09:21:40.993Z,97380.13
2019-02-27T09:24:12.744Z,97381.42
2019-02-27T09:26:44.451Z,97383.94
2019-02-27T09:29:18.721Z,97388.03
2019-02-27T09:31:51.248Z,97384.66
2019-02-27T09:34:26.696Z,97380.38
2019-02-27T09:36:56.936Z,97387.45
2019-02-27T09:39:31.141Z,97388.48
2019-02-27T09:42:02.487Z,97393.79
2019-02-27T09:44:36.603Z,97398.78
2019-02-27T09:47:08.251Z,97401.12
2019-02-27T09:49:40.776Z,97402.03
2019-02-27T09:52:13.701Z,97396.00
2019-02-27T09:54:46.940Z,97404.66
2019-02-27T09:57:18.866Z,97393.75
2019-02-27T09:59:51.172Z,97393.86
2019-02-27T10:02:23.938Z,97386.77
2019-02-27T10:04:55.807Z,97390.80
2019-02-27T10:07:27.405Z,97400.55
2019-02-27T10:09:59.050Z,97403.91
2019-02-27T10:12:30.733Z,97404.61
2019-02-27T10:15:02.636Z,97400.64
2019-02-27T10:17:34.571Z,97388.09
2019-02-27T10:20:06.527Z,97400.60
2019-02-27T10:22:39.511Z,97396.48
2019-02-27T10:25:11.220Z,97388.44
2019-02-27T10:27:42.951Z,97396.91
2019-02-27T10:30:16.787Z,97376.00
2019-02-27T10:32:48.569Z,97376.75
2019-02-27T10:35:20.223Z,97376.78
2019-02-27T10:37:54.340Z,97389.56
2019-02-27T10:40:25.426Z,97391.41
2019-02-27T10:42:57.251Z,97381.52
2019-02-27T10:45:29.019Z,97384.78
2019-02-27T10:48:00.688Z,97386.37
2019-02-27T10:50:35.549Z,97388.00
2019-02-27T10:53:05.889Z,97381.71
2019-02-27T10:55:37.567Z,97382.59
2019-02-27T10:58:12.918Z,97387.64
2019-02-27T11:00:46.269Z,97388.32
2019-02-27T11:03:18.958Z,97386.53
2019-02-27T11:05:54.075Z,97381.06
2019-02-27T11:08:28.609Z,97388.24
2019-02-27T11:10:57.565Z,97390.59
2019-02-27T11:13:29.429Z,97384.86
2019-02-27T11:16:01.200Z,97381.10
2019-02-27T11:18:32.978Z,97378.27
2019-02-27T11:21:04.812Z,97379.65
2019-02-27T11:23:40.866Z,97385.01
2019-02-27T11:26:10.318Z,97378.66
2019-02-27T11:28:47.401Z,97378.48
2019-02-27T11:31:15.668Z,97377.47
2019-02-27T11:33:47.439Z,97375.70
2019-02-27T11:36:19.362Z,97377.66
2019-02-27T11:38:51.084Z,97388.09
2019-02-27T11:41:23.068Z,97389.13
2019-02-27T11:43:55.056Z,97395.61
2019-02-27T11:46:26.856Z,97398.04
2019-02-27T11:48:59.964Z,97396.00
2019-02-27T11:51:32.086Z,97403.36
2019-02-27T11:54:04.313Z,97399.31
2019-02-27T11:56:36.559Z,97401.66
2019-02-27T11:59:10.270Z,97398.09
2019-02-27T12:01:41.868Z,97400.66
2019-02-27T12:04:13.576Z,97406.80
2019-02-27T12:06:45.268Z,97407.23
2019-02-27T12:09:17.088Z,97398.22
2019-02-27T12:11:49.452Z,97400.34
2019-02-27T12:14:21.483Z,97397.83
2019-02-27T12:16:53.086Z,97396.43
2019-02-27T12:19:24.741Z,97394.13
2019-02-27T12:21:59.496Z,97406.41
2019-02-27T12:24:29.887Z,97417.40
2019-02-27T12:27:01.685Z,97418.38
2019-02-27T12:29:33.407Z,97407.66
2019-02-27T12:32:06.176Z,97408.00
2019-02-27T12:34:38.409Z,97405.45
2019-02-27T12:37:23.130Z,97413.98
2019-02-27T12:39:43.610Z,97406.97
2019-02-27T12:42:15.369Z,97413.89
2019-02-27T12:44:47.189Z,97419.89
2019-02-27T12:47:18.936Z,97416.23
2019-02-27T12:49:51.585Z,97417.25
2019-02-27T12:52:24.127Z,97417.27
2019-02-27T12:54:55.812Z,97412.27
2019-02-27T12:57:27.699Z,97418.65
2019-02-27T12:59:59.486Z,97416.25
2019-02-27T13:02:35.649Z,97407.72
2019-02-27T13:05:04.939Z,97402.67
2019-02-27T13:07:36.580Z,97410.63
2019-02-27T13:10:10.687Z,97419.25
2019-02-27T13:12:42.539Z,97416.44
2019-02-27T13:15:15.927Z,97416.66
2019-02-27T13:17:49.001Z,97413.38
2019-02-27T13:20:22.605Z,97411.66
2019-02-27T13:22:54.311Z,97406.88
2019-02-27T13:25:26.621Z,97418.16
2019-02-27T13:27:58.303Z,97420.78
2019-02-27T13:30:30.192Z,97429.73
2019-02-27T13:33:02.279Z,97427.56
2019-02-27T13:35:34.278Z,97430.30
2019-02-27T13:38:06.135Z,97432.86
2019-02-27T13:40:37.802Z,97430.93
2019-02-27T13:43:10.116Z,97428.38
2019-02-27T13:45:42.000Z,97431.91
2019-02-27T13:48:13.868Z,97430.72
2019-02-27T13:50:45.546Z,97428.62
2019-02-27T13:53:17.340Z,97433.09
2019-02-27T13:55:49.139Z,97428.42
2019-02-27T13:58:20.843Z,97437.19
2019-02-27T14:00:53.641Z,97428.95
2019-02-27T14:03:26.251Z,97430.97
2019-02-27T14:05:57.860Z,97432.85
2019-02-27T14:08:32.087Z,97433.63
2019-02-27T14:11:03.333Z,97443.48
2019-02-27T14:13:35.104Z,97437.95
2019-02-27T14:16:06.941Z,97431.38
2019-02-27T14:18:38.780Z,97436.09
2019-02-27T14:21:10.434Z,97436.41
2019-02-27T14:23:42.143Z,97437.19
2019-02-27T14:26:15.316Z,97446.73
2019-02-27T14:28:47.094Z,97450.80
2019-02-27T14:31:18.807Z,97439.64
2019-02-27T14:33:51.254Z,97438.20
2019-02-27T14:36:24.032Z,97445.53
2019-02-27T14:38:56.510Z,97443.95
2019-02-27T14:41:28.874Z,97442.20
2019-02-27T14:44:00.657Z,97445.66
2019-02-27T14:46:32.430Z,97434.75
2019-02-27T14:49:04.303Z,97432.90
2019-02-27T14:51:37.301Z,97438.74
2019-02-27T14:54:08.972Z,97440.12
2019-02-27T14:56:41.710Z,97439.23
2019-02-27T14:59:14.303Z,97444.74
2019-02-27T15:01:48.756Z,97455.11
2019-02-27T15:04:19.715Z,97439.19
2019-02-27T15:06:51.534Z,97443.28
2019-02-27T15:09:24.834Z,97444.12
2019-02-27T15:11:56.571Z,97448.72
2019-02-27T15:14:31.033Z,97444.19
2019-02-27T15:17:01.731Z,97454.26
2019-02-27T15:19:35.387Z,97448.34
2019-02-27T15:22:07.117Z,97443.69
2019-02-27T15:24:38.849Z,97446.95
2019-02-27T15:27:10.537Z,97448.11
2019-02-27T15:30:02.310Z,97453.83
2019-02-27T15:32:34.099Z,97459.03
2019-02-27T15:35:06.273Z,97471.59
2019-02-27T15:37:38.189Z,97464.28
2019-02-27T15:40:11.229Z,97459.28
2019-02-27T15:42:46.807Z,97465.46
2019-02-27T15:45:19.436Z,97461.89
2019-02-27T15:48:06.923Z,97472.59
2019-02-27T15:50:39.467Z,97461.30
2019-02-27T15:53:14.559Z,97463.41
2019-02-27T15:55:44.709Z,97471.67
2019-02-27T15:58:16.520Z,97465.09
2019-02-27T16:00:52.144Z,97467.02
2019-02-27T16:03:22.995Z,97468.72
2019-02-27T16:05:54.820Z,97475.53
2019-02-27T16:08:26.638Z,97444.02
2019-02-27T16:10:58.284Z,97458.59
2019-02-27T16:13:32.032Z,97463.22
2019-02-27T16:16:04.796Z,97449.55
2019-02-27T16:18:37.649Z,97461.16
2019-02-27T16:21:09.639Z,97456.41
2019-02-27T16:23:41.460Z,97458.13
2019-02-27T16:26:13.060Z,97462.22
2019-02-27T16:28:46.068Z,97474.59
2019-02-27T16:31:18.371Z,97485.42
2019-02-27T16:33:50.307Z,97489.12
2019-02-27T16:36:23.485Z,97483.25
2019-02-27T16:38:55.639Z,97488.63
2019-02-27T16:41:28.923Z,97489.67
2019-02-27T16:44:00.872Z,97491.80
2019-02-27T16:46:33.855Z,97486.49
2019-02-27T16:49:09.640Z,97481.39
2019-02-27T16:51:38.779Z,97479.54
2019-02-27T16:54:10.580Z,97485.13
2019-02-27T16:56:46.401Z,97479.60
2019-02-27T16:59:15.624Z,97479.68
2019-02-27T17:01:47.246Z,97484.98
2019-02-27T17:04:19.088Z,97485.02
2019-02-27T17:06:52.196Z,97491.64
2019-02-27T17:09:24.337Z,97495.31
2019-02-27T17:11:56.167Z,97492.56
2019-02-27T17:14:27.902Z,97492.36
2019-02-27T17:16:59.648Z,97496.45
2019-02-27T17:19:33.119Z,97500.04
2019-02-27T17:22:04.837Z,97496.45
2019-02-27T17:24:36.664Z,97499.12
2019-02-27T17:27:12.597Z,97488.58
2019-02-27T17:29:41.774Z,97489.23
2019-02-27T17:32:13.522Z,97485.46
2019-02-27T17:34:47.654Z,97487.16
2019-02-27T17:37:19.045Z,97499.80
2019-02-27T17:39:50.710Z,97505.88
2019-02-27T17:42:22.576Z,97505.76
2019-02-27T17:44:54.393Z,97508.41
2019-02-27T17:47:28.870Z,97502.69
2019-02-27T17:49:59.569Z,97505.72
2019-02-27T17:52:31.165Z,97506.22
2019-02-27T17:55:03.520Z,97508.89
2019-02-27T17:57:36.438Z,97498.55
2019-02-27T18:00:12.940Z,97492.83
2019-02-27T18:02:45.560Z,97492.75
2019-02-27T18:05:17.355Z,97493.05
2019-02-27T18:07:49.021Z,97488.16
2019-02-27T18:10:20.802Z,97488.97
2019-02-27T18:12:52.637Z,97496.30
2019-02-27T18:15:25.648Z,97487.09
2019-02-27T18:17:57.337Z,97475.48
2019-02-27T18:20:32.020Z,97477.83
2019-02-27T18:23:04.186Z,97474.44
2019-02-27T18:25:41.068Z,97478.80
2019-02-27T18:28:10.217Z,97473.02
2019-02-27T18:30:42.698Z,97475.28
2019-02-27T18:33:17.339Z,97486.68
2019-02-27T18:35:48.255Z,97484.78
2019-02-27T18:38:20.159Z,97484.05
2019-02-27T18:40:51.885Z,97492.50
2019-02-27T18:43:23.937Z,97485.85
2019-02-27T18:45:55.775Z,97486.77
2019-02-27T18:48:27.498Z,97491.23
2019-02-27T18:50:59.455Z,97487.39
2019-02-27T18:53:32.307Z,97486.14
2019-02-27T18:56:04.368Z,97485.65
2019-02-27T18:58:36.213Z,97485.16
2019-02-27T19:01:09.989Z,97484.14
2019-02-27T19:03:41.835Z,97489.23
2019-02-27T19:06:13.434Z,97483.25
2019-02-27T19:08:45.145Z,97486.63
2019-02-27T19:11:16.807Z,97485.30
2019-02-27T19:13:48.686Z,97488.26
2019-02-27T19:16:20.805Z,97478.15
2019-02-27T19:18:53.634Z,97480.53
2019-02-27T19:21:25.576Z,97480.55
2019-02-27T19:23:57.368Z,97488.20
2019-02-27T19:26:29.395Z,97481.50
2019-02-27T19:29:01.006Z,97478.21
2019-02-27T19:31:32.757Z,97476.70
2019-02-27T19:34:07.389Z,97476.99
2019-02-27T19:36:39.482Z,97471.98
2019-02-27T19:39:11.309Z,97479.60
2019-02-27T19:41:43.486Z,97477.20
2019-02-27T19:44:16.343Z,97478.70
2019-02-27T19:46:48.064Z,97476.09
2019-02-27T19:49:19.734Z,97472.33
2019-02-27T19:51:54.577Z,97465.72
2019-02-27T19:54:24.795Z,97472.48
2019-02-27T19:56:56.857Z,97478.90
2019-02-27T19:59:29.045Z,97480.52
2019-02-27T20:02:01.034Z,97474.93
2019-02-27T20:04:32.744Z,97470.21
2019-02-27T20:07:04.520Z,97472.23
2019-02-27T20:09:36.409Z,97466.70
2019-02-27T20:12:09.678Z,97462.20
2019-02-27T20:14:41.647Z,97467.01
2019-02-27T20:17:13.407Z,97462.14
2019-02-27T20:19:45.246Z,97461.70
2019-02-27T20:22:18.848Z,97458.27
2019-02-27T20:24:50.312Z,97460.29
2019-02-27T20:27:21.977Z,97454.70
2019-02-27T20:29:53.726Z,97451.89
2019-02-27T20:32:28.365Z,97457.19
2019-02-27T20:34:59.842Z,97450.09
2019-02-27T20:37:31.936Z,97452.41
2019-02-27T20:40:03.809Z,97445.14
2019-02-27T20:42:35.700Z,97447.12
2019-02-27T20:45:11.405Z,97448.09
2019-02-27T20:47:43.275Z,97452.78
2019-02-27T20:50:26.847Z,97451.78
2019-02-27T20:52:54.460Z,97449.34
2019-02-27T20:55:26.182Z,97446.02
2019-02-27T20:57:58.091Z,97443.33
2019-02-27T21:00:30.019Z,97450.95
2019-02-27T21:03:02.634Z,97448.40
2019-02-27T21:05:34.814Z,97448.08
2019-02-27T21:08:06.606Z,97449.55
2019-02-27T21:10:38.286Z,97449.45
2019-02-27T21:13:15.602Z,97449.45
2019-02-27T21:15:43.281Z,97444.50
2019-02-27T21:18:15.051Z,97442.80
2019-02-27T21:20:46.811Z,97447.80
2019-02-27T21:23:18.658Z,97444.85
2019-02-27T21:25:50.512Z,97439.90
2019-02-27T21:28:22.218Z,97430.16
2019-02-27T21:30:53.890Z,97433.31
2019-02-27T21:33:25.621Z,97424.70
2019-02-27T21:36:02.456Z,97422.44
2019-02-27T21:38:30.789Z,97418.56
2019-02-27T21:41:02.622Z,97419.34
2019-02-27T21:43:34.532Z,97415.66
2019-02-27T21:46:08.339Z,97411.30
2019-02-27T21:48:39.931Z,97414.74
2019-02-27T21:51:13.867Z,97420.81
2019-02-27T21:53:46.650Z,97424.23
2019-02-27T21:56:18.866Z,97417.57
2019-02-27T21:58:51.114Z,97419.55
2019-02-27T22:01:22.926Z,97413.03
2019-02-27T22:03:54.701Z,97410.34
2019-02-27T22:06:27.457Z,97406.61
2019-02-27T22:08:59.819Z,97402.36
2019-02-27T22:11:31.605Z,97396.71
2019-02-27T22:14:03.296Z,97396.19
2019-02-27T22:16:35.308Z,97390.55
2019-02-27T22:19:06.985Z,97399.95
2019-02-27T22:21:40.038Z,97403.28
2019-02-27T22:24:11.649Z,97408.72
2019-02-27T22:26:43.445Z,97409.16
2019-02-27T22:29:15.092Z,97406.09
2019-02-27T22:31:46.821Z,97397.45
2019-02-27T22:34:18.459Z,97401.78
2019-02-27T22:36:50.149Z,97399.43
2019-02-27T22:39:21.859Z,97392.51
2019-02-27T22:41:53.680Z,97394.67
2019-02-27T22:44:26.316Z,97393.01
2019-02-27T22:46:58.988Z,97389.45
2019-02-27T22:49:32.027Z,97389.13
2019-02-27T22:52:05.060Z,97381.70
2019-02-27T22:54:36.854Z,97385.75
2019-02-27T22:57:08.468Z,97383.55
2019-02-27T22:59:40.218Z,97382.19
2019-02-27T23:02:12.016Z,97381.93
2019-02-27T23:04:43.708Z,97384.47
2019-02-27T23:07:15.326Z,97382.08
2019-02-27T23:09:47.105Z,97377.80
2019-02-27T23:12:18.832Z,97378.87
2019-02-27T23:14:52.932Z,97376.23
2019-02-27T23:17:24.080Z,97377.94
2019-02-27T23:19:55.687Z,97376.81
2019-02-27T23:22:28.729Z,97375.73
2019-02-27T23:25:00.529Z,97373.69
2019-02-27T23:27:32.211Z,97369.55
2019-02-27T23:30:03.893Z,97372.59
2019-02-27T23:32:35.653Z,97367.33
2019-02-27T23:35:07.426Z,97365.73
2019-02-27T23:37:38.978Z,97368.73
2019-02-27T23:40:10.798Z,97366.08
2019-02-27T23:42:42.492Z,97362.52
2019-02-27T23:45:14.229Z,97362.12
2019-02-27T23:47:45.968Z,97364.66
2019-02-27T23:50:17.542Z,97367.55
2019-02-27T23:52:49.224Z,97368.42
2019-02-27T23:55:20.834Z,97366.14
2019-02-27T23:57:57.379Z,97356.25
